Time;durP1;ratioP1;P1;durP2;ratioP2;P2;SDS_P1;SDS_P2;PMS_P1;PMS_P2;Temp;Humidity;BMP_temperature;BMP_pressure;BME280_temperature;BME280_humidity;BME280_pressure;Samples;Min_cycle;Max_cycle;Signal;HPM_P1;HPM_P2
2021/10/24 00:01:46;;;;;;;6.80;4.60;;;;;;;;;;4982110;28;20312;-80
2021/10/24 00:04:14;;;;;;;5.97;4.37;;;;;;;;;;4985633;28;20291;-80
2021/10/24 00:06:41;;;;;;;7.07;4.17;;;;;;;;;;4990300;28;20293;-80
2021/10/24 00:09:08;;;;;;;6.87;4.60;;;;;;;;;;4975280;28;20296;-81
2021/10/24 00:11:36;;;;;;;7.13;4.60;;;;;;;;;;4990142;28;20233;-81
2021/10/24 00:14:06;;;;;;;8.57;4.70;;;;;;;;;;4972344;28;20829;-79
2021/10/24 00:16:34;;;;;;;9.47;4.73;;;;;;;;;;4984470;28;20232;-80
2021/10/24 00:19:01;;;;;;;5.70;3.90;;;;;;;;;;4975614;28;20237;-81
2021/10/24 00:21:28;;;;;;;7.80;4.30;;;;;;;;;;4988636;28;20664;-80
2021/10/24 00:23:56;;;;;;;7.33;4.17;;;;;;;;;;4989641;28;20647;-79
2021/10/24 00:26:23;;;;;;;4.57;3.90;;;;;;;;;;4989174;28;20201;-80
2021/10/24 00:28:50;;;;;;;6.43;4.10;;;;;;;;;;4990267;28;20630;-79
2021/10/24 00:31:19;;;;;;;6.83;4.57;;;;;;;;;;4988552;28;20656;-80
2021/10/24 00:33:46;;;;;;;7.73;4.40;;;;;;;;;;4990024;28;20292;-80
2021/10/24 00:36:13;;;;;;;6.33;4.40;;;;;;;;;;4990443;28;20293;-80
2021/10/24 00:38:40;;;;;;;6.97;3.90;;;;;;;;;;4993325;28;20236;-80
2021/10/24 00:41:08;;;;;;;7.53;4.07;;;;;;;;;;4989815;28;20274;-79
2021/10/24 00:43:35;;;;;;;6.33;4.50;;;;;;;;;;4982632;28;20285;-79
2021/10/24 00:46:02;;;;;;;7.63;4.13;;;;;;;;;;4990770;28;20204;-79
2021/10/24 00:48:31;;;;;;;8.87;4.40;;;;;;;;;;4980086;28;20297;-79
2021/10/24 00:50:58;;;;;;;9.50;4.43;;;;;;;;;;4990768;28;20716;-80
2021/10/24 00:53:25;;;;;;;6.93;4.57;;;;;;;;;;4985258;28;20304;-80
2021/10/24 00:55:52;;;;;;;7.20;4.07;;;;;;;;;;4985573;28;20300;-80
2021/10/24 00:58:20;;;;;;;10.33;4.80;;;;;;;;;;4992121;28;20233;-80
2021/10/24 01:00:48;;;;;;;6.07;4.37;;;;;;;;;;4984599;28;20296;-78
2021/10/24 01:03:15;;;;;;;8.90;4.67;;;;;;;;;;4984095;28;20313;-78
2021/10/24 01:05:44;;;;;;;7.20;4.90;;;;;;;;;;4980330;28;20204;-80
2021/10/24 01:08:12;;;;;;;9.77;4.30;;;;;;;;;;4992086;28;20592;-80
2021/10/24 01:10:39;;;;;;;6.07;4.67;;;;;;;;;;4989287;28;20291;-79
2021/10/24 01:13:06;;;;;;;6.00;4.40;;;;;;;;;;4986883;28;20292;-80
2021/10/24 01:15:33;;;;;;;9.07;4.47;;;;;;;;;;4985244;28;20222;-80
2021/10/24 01:18:00;;;;;;;5.77;4.23;;;;;;;;;;4985084;28;20301;-79
2021/10/24 01:20:29;;;;;;;6.07;3.83;;;;;;;;;;4977252;28;20233;-80
2021/10/24 01:22:57;;;;;;;5.80;4.03;;;;;;;;;;4988822;28;20197;-80
2021/10/24 01:25:24;;;;;;;7.63;4.40;;;;;;;;;;4978927;28;20629;-80
2021/10/24 01:27:53;;;;;;;6.93;4.53;;;;;;;;;;4978826;28;20237;-80
2021/10/24 01:30:20;;;;;;;7.00;4.40;;;;;;;;;;4979805;28;20765;-80
2021/10/24 01:32:47;;;;;;;8.17;4.70;;;;;;;;;;4984047;28;20272;-80
2021/10/24 01:35:15;;;;;;;5.27;3.80;;;;;;;;;;4989428;28;20657;-79
2021/10/24 01:37:43;;;;;;;5.80;4.10;;;;;;;;;;4976396;28;20289;-80
2021/10/24 01:40:12;;;;;;;8.80;4.43;;;;;;;;;;4985354;28;20232;-80
2021/10/24 01:42:50;;;;;;;6.17;4.33;;;;;;;;;;4991604;28;20629;-80
2021/10/24 01:45:19;;;;;;;7.47;4.40;;;;;;;;;;4986734;28;20665;-80
2021/10/24 01:47:46;;;;;;;8.53;4.80;;;;;;;;;;4972399;28;20212;-80
2021/10/24 01:50:13;;;;;;;6.43;4.20;;;;;;;;;;4990182;28;20232;-80
2021/10/24 01:52:42;;;;;;;6.23;4.87;;;;;;;;;;4991354;28;20771;-80
2021/10/24 01:55:11;;;;;;;10.10;4.60;;;;;;;;;;4980259;28;20227;-79
2021/10/24 01:57:38;;;;;;;6.53;4.20;;;;;;;;;;4990607;28;20293;-80
2021/10/24 02:00:06;;;;;;;6.77;4.27;;;;;;;;;;4984316;28;20288;-80
2021/10/24 02:02:34;;;;;;;6.77;4.50;;;;;;;;;;4990946;28;20674;-80
2021/10/24 02:05:02;;;;;;;6.20;4.53;;;;;;;;;;4985105;28;20197;-80
2021/10/24 02:07:29;;;;;;;7.37;4.57;;;;;;;;;;4983043;28;20196;-79
2021/10/24 02:09:57;;;;;;;5.80;4.17;;;;;;;;;;4984743;28;20287;-80
2021/10/24 02:12:26;;;;;;;6.30;4.20;;;;;;;;;;4973766;28;20276;-80
2021/10/24 02:14:53;;;;;;;6.20;4.03;;;3.20;99.90;;;;;;4988061;28;20760;-80
2021/10/24 02:17:21;;;;;;;5.50;4.30;;;;;;;;;;4981551;28;20285;-80
2021/10/24 02:19:48;;;;;;;5.83;4.30;;;;;;;;;;4973116;28;20298;-80
2021/10/24 02:22:16;;;;;;;6.63;4.30;;;;;;;;;;4976563;28;20287;-80
2021/10/24 02:24:43;;;;;;;5.77;4.20;;;;;;;;;;4978611;28;20548;-79
2021/10/24 02:27:11;;;;;;;6.97;4.30;;;;;;;;;;4972871;28;20204;-79
2021/10/24 02:29:40;;;;;;;6.27;4.60;;;;;;;;;;4971615;28;20244;-80
2021/10/24 02:32:08;;;;;;;6.37;4.17;;;;;;;;;;4971953;28;20232;-80
2021/10/24 02:34:35;;;;;;;5.47;4.00;;;;;;;;;;4983170;28;20773;-80
2021/10/24 02:37:03;;;;;;;5.07;4.03;;;;;;;;;;4975549;28;20290;-80
2021/10/24 02:39:30;;;;;;;6.17;4.50;;;;;;;;;;4975671;28;20641;-80
2021/10/24 02:41:58;;;;;;;5.27;4.17;;;;;;;;;;4982976;28;20224;-80
2021/10/24 02:44:26;;;;;;;6.73;4.30;;;;;;;;;;4990637;28;20290;-80
2021/10/24 02:46:56;;;;;;;5.30;4.37;;;;;;;;;;4990603;28;20205;-80
2021/10/24 02:49:24;;;;;;;7.43;4.87;;;;;;;;;;4987635;28;20221;-79
2021/10/24 02:51:51;;;;;;;8.27;4.63;;;;;;;;;;4991047;28;20319;-80
2021/10/24 02:54:19;;;;;;;7.23;4.53;;;;;;;;;;4984527;28;20629;-80
2021/10/24 02:56:47;;;;;;;7.83;4.70;;;;;;;;;;4988133;28;20234;-80
2021/10/24 02:59:15;;;;;;;7.80;4.73;;;;;;;;;;4989325;28;20204;-80
2021/10/24 03:01:42;;;;;;;6.97;5.03;;;2.80;99.90;;;;;;4989030;28;20291;-80
2021/10/24 03:04:11;;;;;;;7.63;4.83;;;2.90;99.90;;;;;;4982592;28;20242;-80
2021/10/24 03:06:38;;;;;;;5.93;4.53;;;3.00;99.90;;;;;;4975130;28;20214;-80
2021/10/24 03:09:05;;;;;;;6.07;4.50;;;3.00;99.90;;;;;;4971301;28;20215;-78
2021/10/24 03:11:32;;;;;;;8.03;5.20;;;3.20;99.90;;;;;;4975067;28;20235;-80
2021/10/24 03:13:59;;;;;;;11.63;4.83;;;3.30;99.90;;;;;;4977836;28;20214;-80
2021/10/24 03:16:26;;;;;;;7.63;5.03;;;3.30;99.90;;;;;;4986749;28;20657;-80
2021/10/24 03:18:53;;;;;;;7.90;4.87;;;3.50;99.90;;;;;;4989738;28;20287;-80
2021/10/24 03:21:21;;;;;;;8.20;4.90;;;3.50;99.90;;;;;;4988399;28;20288;-80
2021/10/24 03:23:48;;;;;;;7.67;4.50;;;3.40;99.90;;;;;;4972105;28;20205;-80
2021/10/24 03:26:15;;;;;;;8.37;4.40;;;3.40;99.90;;;;;;4982658;28;20243;-80
2021/10/24 03:28:42;;;;;;;5.80;4.43;;;3.30;99.90;;;;;;4982854;28;20292;-80
2021/10/24 03:31:09;;;;;;;9.53;4.90;;;3.40;99.90;;;;;;4979990;28;20243;-80
2021/10/24 03:33:36;;;;;;;8.57;4.53;;;3.40;99.90;;;;;;4982147;28;20230;-79
2021/10/24 03:36:03;;;;;;;7.63;4.83;;;3.40;99.90;;;;;;4981954;28;20243;-80
2021/10/24 03:38:31;;;;;;;6.70;4.70;;;3.40;99.90;;;;;;4977891;28;20245;-80
2021/10/24 03:40:58;;;;;;;7.33;4.90;;;3.40;99.90;;;;;;4977238;28;20321;-79
2021/10/24 03:43:26;;;;;;;8.60;4.73;;;3.40;99.90;;;;;;4971523;28;20288;-80
2021/10/24 03:45:53;;;;;;;6.50;4.87;;;3.40;99.90;;;;;;4979252;28;20727;-79
2021/10/24 03:48:20;;;;;;;8.97;4.40;;;3.40;99.90;;;;;;4970795;28;20291;-80
2021/10/24 03:50:46;;;;;;;7.10;4.60;;;3.40;99.90;;;;;;4978929;28;20251;-80
2021/10/24 03:53:13;;;;;;;8.83;4.77;;;3.50;99.90;;;;;;4987719;28;20317;-80
2021/10/24 03:55:42;;;;;;;6.40;4.93;;;3.50;99.90;;;;;;4990193;28;20237;-79
2021/10/24 03:58:08;;;;;;;9.80;4.53;;;3.50;99.90;;;;;;4973419;28;20287;-78
2021/10/24 04:00:35;;;;;;;9.27;4.77;;;3.40;99.90;;;;;;4974517;28;20243;-80
2021/10/24 04:03:05;;;;;;;7.33;4.73;;;3.50;99.90;;;;;;4976182;28;20300;-80
2021/10/24 04:05:32;;;;;;;7.47;4.83;;;3.50;99.90;;;;;;4984539;28;20283;-79
2021/10/24 04:07:59;;;;;;;7.27;4.77;;;3.60;99.90;;;;;;4969857;28;20237;-79
2021/10/24 04:10:28;;;;;;;8.50;5.17;;;3.60;99.90;;;;;;4983609;28;20286;-79
2021/10/24 04:12:57;;;;;;;7.17;4.67;;;3.60;99.90;;;;;;4970732;28;20309;-79
2021/10/24 04:15:25;;;;;;;8.60;4.90;;;3.50;99.90;;;;;;4981091;28;20881;-79
2021/10/24 04:17:52;;;;;;;8.50;4.97;;;3.60;99.90;;;;;;4990079;28;20263;-79
2021/10/24 04:20:21;;;;;;;9.07;4.90;;;3.50;99.90;;;;;;4992483;28;20243;-80
2021/10/24 04:22:49;;;;;;;6.73;4.50;;;3.40;99.90;;;;;;4995512;28;20231;-79
2021/10/24 04:25:17;;;;;;;9.57;4.60;;;3.40;99.90;;;;;;4982702;28;20209;-80
2021/10/24 04:27:44;;;;;;;8.13;4.70;;;3.40;99.90;;;;;;4989713;28;20562;-80
2021/10/24 04:30:14;;;;;;;10.47;4.57;;;3.30;99.90;;;;;;4988963;28;20295;-80
2021/10/24 04:32:43;;;;;;;7.03;4.70;;;3.40;99.90;;;;;;4981214;28;20222;-80
2021/10/24 04:35:11;;;;;;;8.23;5.37;;;3.50;99.90;;;;;;4986492;28;20286;-80
2021/10/24 04:37:37;;;;;;;7.63;4.73;;;3.60;99.90;;;;;;4983796;28;20209;-80
2021/10/24 04:40:06;;;;;;;6.73;5.03;;;3.60;99.90;;;;;;4985948;28;20295;-80
2021/10/24 04:42:34;;;;;;;7.70;4.80;;;3.50;99.90;;;;;;4970092;28;20291;-80
2021/10/24 04:45:01;;;;;;;6.77;4.77;;;3.50;99.90;;;;;;4973195;28;20209;-80
2021/10/24 04:47:30;;;;;;;8.07;4.60;;;3.50;99.90;;;;;;4988714;28;20277;-80
2021/10/24 04:49:57;;;;;;;6.67;5.10;;;3.50;99.90;;;;;;4989692;28;20241;-80
2021/10/24 04:52:23;;;;;;;7.57;4.80;;;3.40;99.90;;;;;;4989159;28;20219;-80
2021/10/24 04:54:50;;;;;;;8.80;5.00;;;3.40;99.90;;;;;;4970749;28;20200;-80
2021/10/24 04:57:17;;;;;;;8.30;4.80;;;3.50;99.90;;;;;;4981484;28;20633;-80
2021/10/24 04:59:44;;;;;;;9.03;4.97;;;3.40;99.90;;;;;;4988116;28;20294;-80
2021/10/24 05:02:11;;;;;;;6.37;4.67;;;3.40;99.90;;;;;;4974235;28;20317;-80
2021/10/24 05:04:40;;;;;;;8.43;5.27;;;3.30;99.90;;;;;;4979238;28;20233;-80
2021/10/24 05:07:07;;;;;;;7.30;5.03;;;3.30;99.90;;;;;;4989007;28;20293;-80
2021/10/24 05:09:33;;;;;;;7.43;4.97;;;3.30;99.90;;;;;;4988302;28;20583;-80
2021/10/24 05:12:00;;;;;;;8.00;4.90;;;3.30;99.90;;;;;;4989181;28;20302;-80
2021/10/24 05:14:27;;;;;;;6.33;4.87;;;3.20;99.90;;;;;;4982569;28;20294;-80
2021/10/24 05:16:54;;;;;;;6.37;4.67;;;3.10;99.90;;;;;;4986382;28;20637;-80
2021/10/24 05:19:21;;;;;;;7.70;5.07;;;3.00;99.90;;;;;;4989190;28;20935;-79
2021/10/24 05:21:49;;;;;;;7.90;4.70;;;3.10;99.90;;;;;;4992219;28;20629;-80
2021/10/24 05:24:16;;;;;;;8.00;5.20;;;3.00;99.90;;;;;;4990068;28;20727;-80
2021/10/24 05:26:44;;;;;;;7.40;4.73;;;3.00;99.90;;;;;;4989380;28;20283;-79
2021/10/24 05:29:11;;;;;;;6.77;4.90;;;3.10;99.90;;;;;;4983383;28;20268;-80
2021/10/24 05:31:38;;;;;;;7.40;4.93;;;2.90;99.90;;;;;;4986654;28;20234;-80
2021/10/24 05:34:05;;;;;;;6.93;4.87;;;3.10;99.90;;;;;;4992227;28;20313;-79
2021/10/24 05:36:32;;;;;;;7.97;5.27;;;3.00;99.90;;;;;;4977632;28;20300;-80
2021/10/24 05:39:00;;;;;;;6.80;4.77;;;3.10;99.90;;;;;;4980710;28;20300;-79
2021/10/24 05:41:28;;;;;;;7.03;4.97;;;3.20;99.90;;;;;;4990375;28;20269;-79
2021/10/24 05:43:55;;;;;;;8.47;5.03;;;3.30;99.90;;;;;;4986682;28;20195;-79
2021/10/24 05:46:22;;;;;;;9.23;5.10;;;3.30;99.90;;;;;;4981635;28;20587;-79
2021/10/24 05:48:50;;;;;;;7.10;4.97;;;3.40;99.90;;;;;;4990955;28;20295;-79
2021/10/24 05:51:17;;;;;;;8.37;5.53;;;3.30;99.90;;;;;;4992306;28;20238;-80
2021/10/24 05:53:44;;;;;;;10.20;5.43;;;3.30;99.90;;;;;;4988384;28;20313;-79
2021/10/24 05:56:13;;;;;;;6.70;4.90;;;3.30;99.90;;;;;;4988442;28;20208;-80
2021/10/24 05:58:40;;;;;;;10.10;5.90;;;3.30;99.90;;;;;;4988988;28;20300;-80
2021/10/24 06:01:07;;;;;;;8.53;5.70;;;3.40;99.90;;;;;;4979962;28;20230;-79
2021/10/24 06:03:33;;;;;;;7.87;5.27;;;3.50;99.90;;;;;;4978228;28;20299;-80
2021/10/24 06:06:00;;;;;;;7.63;5.00;;;3.40;99.90;;;;;;4985779;28;20288;-79
2021/10/24 06:08:28;;;;;;;8.03;5.60;;;3.50;99.90;;;;;;4986482;28;20292;-79
2021/10/24 06:11:02;;;;;;;8.97;5.70;;;4.00;99.90;;;;;;4975449;28;20199;-80
2021/10/24 06:13:30;;;;;;;10.40;5.20;;;4.10;99.90;;;;;;4972630;28;20709;-80
2021/10/24 06:15:57;;;;;;;7.03;4.90;;;4.10;99.90;;;;;;4982329;28;20208;-79
2021/10/24 06:18:24;;;;;;;8.57;5.20;;;4.30;99.90;;;;;;4991331;28;20287;-80
2021/10/24 06:20:52;;;;;;;8.53;4.57;;;;;;;;;;4987189;28;20284;-80
2021/10/24 06:23:20;;;;;;;12.23;4.83;;;;;;;;;;4984316;28;20285;-80
2021/10/24 06:25:48;;;;;;;8.27;5.10;;;;;;;;;;4981651;28;20690;-80
2021/10/24 06:28:17;;;;;;;7.33;4.70;;;;;;;;;;4986280;28;20234;-80
2021/10/24 06:30:48;;;;;;;8.57;4.90;;;;;;;;;;4985408;28;20290;-79
2021/10/24 06:33:18;;;;;;;7.07;4.33;;;;;;;;;;4991226;28;20308;-78
2021/10/24 06:35:48;;;;;;;7.47;4.67;;;;;;;;;;4989477;28;20779;-77
2021/10/24 06:38:19;;;;;;;6.37;4.60;;;;;;;;;;4982635;28;20290;-77
2021/10/24 06:40:48;;;;;;;7.47;4.57;;;4.70;99.90;;;;;;4978229;28;20351;-77
2021/10/24 06:43:19;;;;;;;7.00;4.73;;;4.70;99.90;;;;;;4989726;28;20195;-77
2021/10/24 06:45:50;;;;;;;5.87;4.90;;;;;;;;;;4979332;28;20761;-78
2021/10/24 06:48:19;;;;;;;10.63;4.40;;;;;;;;;;4971609;28;20218;-76
2021/10/24 06:50:48;;;;;;;6.23;4.40;;;;;;;;;;4981114;28;20659;-77
2021/10/24 06:53:18;;;;;;;6.73;4.37;;;;;;;;;;4974919;28;20309;-77
2021/10/24 06:55:47;;;;;;;6.63;4.83;;;;;;;;;;4987366;28;20202;-77
2021/10/24 06:58:17;;;;;;;6.73;4.43;;;;;;;;;;4991049;28;20240;-77
2021/10/24 07:00:46;;;;;;;5.53;4.37;;;;;;;;;;4980563;28;20246;-78
2021/10/24 07:03:17;;;;;;;6.60;4.50;;;;;;;;;;4978806;28;20267;-75
2021/10/24 07:05:46;;;;;;;7.50;5.20;;;;;;;;;;4987387;28;20293;-77
2021/10/24 07:08:16;;;;;;;6.27;4.60;;;;;;;;;;4981950;28;20297;-78
2021/10/24 07:10:45;;;;;;;6.13;4.63;;;;;;;;;;4979920;28;20302;-77
2021/10/24 07:13:14;;;;;;;7.03;4.50;;;;;;;;;;4982880;28;20300;-78
2021/10/24 07:15:44;;;;;;;6.73;4.47;;;;;;;;;;4980079;28;20237;-78
2021/10/24 07:18:13;;;;;;;7.63;4.30;;;;;;;;;;4981896;28;20290;-78
2021/10/24 07:20:44;;;;;;;5.93;4.37;;;;;;;;;;4977063;28;20284;-77
2021/10/24 07:23:17;;;;;;;6.17;3.97;;;;;;;;;;4982362;28;20295;-77
2021/10/24 07:25:47;;;;;;;6.30;3.90;;;;;;;;;;4983830;28;20237;-78
2021/10/24 07:28:19;;;;;;;6.87;3.90;;;;;;;;;;4976589;28;20689;-77
2021/10/24 07:30:49;;;;;;;6.50;3.97;;;;;;;;;;4988234;28;20264;-78
2021/10/24 07:33:18;;;;;;;6.57;3.83;;;;;;;;;;4987601;28;20293;-78
2021/10/24 07:35:49;;;;;;;3.97;2.93;;;;;;;;;;4988463;28;20225;-77
2021/10/24 07:38:19;;;;;;;4.83;3.40;;;;;;;;;;4984873;28;20704;-78
2021/10/24 07:40:49;;;;;;;6.63;3.53;;;;;;;;;;4984775;28;20234;-78
2021/10/24 07:43:39;;;;;;;5.70;3.90;;;;;;;;;;4978108;28;20206;-77
2021/10/24 07:46:08;;;;;;;5.90;3.60;;;;;;;;;;4981393;28;20195;-77
2021/10/24 07:48:38;;;;;;;5.80;3.27;;;;;;;;;;4976701;28;20285;-77
2021/10/24 07:51:09;;;;;;;5.10;3.40;;;;;;;;;;4983068;28;20199;-77
2021/10/24 07:53:38;;;;;;;4.33;3.17;;;;;;;;;;4980263;28;20199;-77
2021/10/24 07:56:08;;;;;;;4.77;3.30;;;;;;;;;;4980939;28;20232;-77
2021/10/24 07:58:37;;;;;;;4.73;2.87;;;;;;;;;;4984887;28;20297;-77
2021/10/24 08:01:07;;;;;;;6.20;3.03;;;;;;;;;;4983978;28;20208;-77
2021/10/24 08:03:36;;;;;;;4.93;3.40;;;;;;;;;;4981461;28;20328;-77
2021/10/24 08:06:06;;;;;;;5.70;3.50;;;;;;;;;;4981414;28;20289;-77
2021/10/24 08:08:37;;;;;;;5.13;3.40;;;;;;;;;;4982147;28;20214;-77
2021/10/24 08:11:07;;;;;;;6.10;3.35;;;;;;;;;;4981708;28;20608;-77
2021/10/24 08:13:36;;;;;;;5.57;3.30;;;;;;;;;;4982769;28;20225;-77
2021/10/24 08:16:05;;;;;;;3.90;3.10;;;;;;;;;;4983637;28;20230;-77
2021/10/24 08:18:34;;;;;;;3.90;3.27;;;;;;;;;;4985445;28;20208;-77
2021/10/24 08:21:04;;;;;;;4.53;3.43;;;;;;;;;;4983662;28;20772;-77
2021/10/24 08:23:33;;;;;;;5.43;4.13;;;;;;;;;;4981137;28;20289;-78
2021/10/24 08:26:03;;;;;;;4.07;3.40;;;;;;;;;;4981917;28;20284;-78
2021/10/24 08:28:33;;;;;;;6.13;3.63;;;;;;;;;;4987094;28;20285;-78
2021/10/24 08:31:02;;;;;;;6.67;3.83;;;;;;;;;;4974047;28;20288;-77
2021/10/24 08:33:31;;;;;;;4.80;3.40;;;;;;;;;;4977152;28;20205;-77
2021/10/24 08:36:01;;;;;;;6.57;3.80;;;;;;;;;;4985551;28;20228;-80
2021/10/24 08:38:31;;;;;;;4.60;3.63;;;;;;;;;;4976695;28;20281;-77
2021/10/24 08:41:02;;;;;;;4.73;3.63;;;;;;;;;;4981852;28;20801;-76
2021/10/24 08:43:35;;;;;;;6.77;3.63;;;;;;;;;;4981754;28;20204;-77
2021/10/24 08:46:05;;;;;;;6.80;3.80;;;;;;;;;;4969685;28;20264;-77
2021/10/24 08:48:35;;;;;;;5.07;3.63;;;;;;;;;;4974556;28;20203;-77
2021/10/24 08:51:04;;;;;;;8.57;4.30;;;;;;;;;;4985374;28;20293;-77
2021/10/24 08:53:35;;;;;;;5.73;3.60;;;;;;;;;;4983390;28;20233;-77
2021/10/24 08:56:06;;;;;;;7.47;3.90;;;;;;;;;;4982379;28;20264;-77
2021/10/24 08:58:37;;;;;;;5.53;3.67;;;;;;;;;;4983312;28;20206;-77
2021/10/24 09:01:06;;;;;;;5.03;3.47;;;;;;;;;;4983427;28;20289;-77
2021/10/24 09:03:35;;;;;;;5.77;3.73;;;;;;;;;;4986754;28;20221;-77
2021/10/24 09:06:06;;;;;;;7.57;4.35;;;;;;;;;;4990847;28;20241;-78
2021/10/24 09:08:35;;;;;;;6.40;3.80;;;;;;;;;;4984519;28;20573;-77
2021/10/24 09:11:04;;;;;;;6.60;3.53;;;;;;;;;;4989910;28;20294;-77
2021/10/24 09:13:34;;;;;;;7.55;3.90;;;;;;;;;;4991370;28;20297;-77
2021/10/24 09:16:05;;;;;;;4.65;3.30;;;;;;;;;;4990404;28;20756;-77
2021/10/24 09:18:36;;;;;;;6.90;3.70;;;;;;;;;;4992207;28;20309;-77
2021/10/24 09:21:20;;;;;;;5.88;3.53;;;;;;;;;;4992187;28;20198;-77
2021/10/24 09:23:50;;;;;;;4.80;3.50;;;;;;;;;;4984821;28;20289;-77
2021/10/24 09:26:22;;;;;;;5.50;3.53;;;;;;;;;;4981887;28;20202;-77
2021/10/24 09:29:04;;;;;;;5.90;3.50;;;;;;;;;;4983552;28;20293;-79
2021/10/24 09:31:35;;;;;;;7.80;3.70;;;;;;;;;;4981020;28;20241;-77
2021/10/24 09:34:13;;;;;;;6.10;3.53;;;;;;;;;;4981560;28;20684;-76
2021/10/24 09:36:52;;;;;;;5.00;3.58;;;;;;;;;;4981068;28;20404;-76
2021/10/24 09:39:21;;;;;;;5.93;3.90;;;;;;;;;;4987503;28;20255;-77
2021/10/24 09:41:50;;;;;;;6.00;3.97;;;;;;;;;;4974937;28;20325;-76
2021/10/24 09:44:22;;;;;;;5.97;3.93;;;;;;;;;;4982815;28;20297;-77
2021/10/24 09:46:52;;;;;;;5.50;3.47;;;;;;;;;;4971388;28;20206;-77
2021/10/24 09:49:23;;;;;;;6.90;4.27;;;;;;;;;;4980091;28;20244;-77
2021/10/24 09:51:52;;;;;;;6.63;4.10;;;;;;;;;;4991547;28;20626;-77
2021/10/24 09:54:21;;;;;;;6.10;3.97;;;;;;;;;;4991710;28;20292;-77
2021/10/24 09:56:50;;;;;;;5.70;3.77;;;;;;;;;;4991273;28;20251;-77
2021/10/24 09:59:19;;;;;;;6.90;3.85;;;;;;;;;;4991344;28;20242;-77
2021/10/24 10:01:53;;;;;;;5.53;3.80;;;;;;;;;;4991484;28;20305;-77
2021/10/24 10:04:22;;;;;;;4.97;3.80;;;;;;;;;;4990814;28;20293;-77
2021/10/24 10:06:52;;;;;;;4.85;3.33;;;;;;;;;;4991031;28;20284;-77
2021/10/24 10:09:19;;;;;;;4.75;3.70;;;17.80;99.90;;;;;;4991603;28;20293;-77
2021/10/24 10:11:50;;;;;;;5.25;3.65;;;;;;;;;;4991283;28;20296;-78
2021/10/24 10:14:22;;;;;;;5.15;3.50;;;16.30;99.90;;;;;;4991488;28;20289;-77
2021/10/24 10:16:54;;;;;;;4.88;3.42;;;;;;;;;;4991207;28;20263;-77
2021/10/24 10:19:29;;;;;;;4.65;3.78;;;;;;;;;;4990922;28;20277;-77
2021/10/24 10:21:58;;;;;;;4.75;3.88;;;;;;;;;;4991256;28;20684;-77
2021/10/24 10:24:46;;;;;;;5.63;3.80;;;;;;;;;;4991123;28;20289;-76
2021/10/24 10:27:34;;;;;;;4.28;3.67;;;;;;;;;;4990280;28;20190;-77
2021/10/24 10:30:03;;;;;;;5.38;3.67;;;;;;;;;;4990525;28;20236;-77
2021/10/24 10:32:37;;;;;;;6.13;3.95;;;;;;;;;;4990645;28;20681;-77
2021/10/24 10:35:06;;;;;;;5.65;4.03;;;;;;;;;;4990525;28;20205;-77
2021/10/24 10:37:45;;;;;;;5.45;4.20;;;;;;;;;;4989677;28;20324;-76
2021/10/24 10:40:16;;;;;;;8.63;4.13;;;;;;;;;;4990466;28;20237;-78
2021/10/24 10:42:55;;;;;;;5.35;3.80;;;19.30;99.90;;;;;;4990680;28;20237;-77
2021/10/24 10:45:43;;;;;;;5.43;3.80;;;18.30;99.90;;;;;;4990800;28;20284;-77
2021/10/24 10:48:24;;;;;;;6.47;3.80;;;19.50;99.90;;;;;;4991189;28;20237;-77
2021/10/24 10:50:56;;;;;;;4.45;3.53;;;20.10;99.90;;;;;;4974177;28;20290;-78
2021/10/24 10:53:52;;;;;;;4.25;3.67;;;18.50;99.90;;;;;;4971365;28;20293;-77
2021/10/24 10:56:24;;;;;;;6.35;4.00;;;18.00;99.90;;;;;;4971105;28;20669;-78
2021/10/24 10:58:52;;;;;;;3.95;3.50;;;;;;;;;;4971346;28;20313;-77
2021/10/24 11:01:30;;;;;;;4.25;3.85;;;18.60;99.90;;;;;;4971018;28;20708;-77
2021/10/24 11:04:00;;;;;;;4.90;3.80;;;16.30;99.90;;;;;;4971240;28;20285;-77
2021/10/24 11:06:46;;;;;;;5.13;3.40;;;;;;;;;;4971064;28;20568;-77
2021/10/24 11:09:34;;;;;;;5.75;3.40;;;18.20;99.90;;;;;;4970871;28;20238;-77
2021/10/24 11:12:01;;;;;;;4.75;3.70;;;18.80;99.90;;;;;;4976177;28;20260;-78
2021/10/24 11:14:41;;;;;;;6.32;3.80;;;17.40;99.90;;;;;;4989903;28;20213;-77
2021/10/24 11:17:08;;;;;;;4.53;3.63;;;;;;;;;;4990093;28;20233;-77
2021/10/24 11:19:55;;;;;;;4.45;3.60;;;19.40;99.90;;;;;;4990866;28;20288;-77
2021/10/24 11:22:21;;;;;;;5.63;3.70;;;17.40;99.90;;;;;;4990370;28;20700;-77
2021/10/24 11:24:51;;;;;;;6.47;3.63;;;;;;;;;;4990567;28;20701;-77
2021/10/24 11:27:19;;;;;;;5.78;4.03;;;;;;;;;;4990003;28;20627;-77
2021/10/24 11:29:51;;;;;;;6.00;3.80;;;;;;;;;;4990560;28;20292;-77
2021/10/24 11:32:20;;;;;;;4.90;3.42;;;;;;;;;;4990371;28;20267;-77
2021/10/24 11:34:46;;;;;;;4.80;3.63;;;17.10;99.90;;;;;;4990486;28;20229;-77
2021/10/24 11:37:17;;;;;;;5.15;3.75;;;;;;;;;;4989730;28;20313;-77
2021/10/24 11:39:48;;;;;;;4.03;3.10;;;;;;;;;;4974517;28;20290;-78
2021/10/24 11:42:17;;;;;;;6.30;3.72;;;18.20;99.90;;;;;;4970330;28;20241;-77
2021/10/24 11:44:45;;;;;;;5.13;3.50;;;18.30;99.90;;;;;;4970824;28;20238;-78
2021/10/24 11:47:13;;;;;;;4.70;3.92;;;18.50;99.90;;;;;;4971094;28;20230;-77
2021/10/24 11:49:47;;;;;;;6.97;4.10;;;17.80;99.90;;;;;;4970903;28;20202;-77
2021/10/24 11:52:25;;;;;;;4.60;3.40;;;17.40;99.90;;;;;;4979316;28;20229;-77
2021/10/24 11:55:04;;;;;;;5.07;3.45;;;;;;;;;;4990052;28;20237;-77
2021/10/24 11:57:49;;;;;;;7.88;3.70;;;;;;;;;;4989560;28;20676;-77
2021/10/24 12:00:21;;;;;;;7.13;4.00;;;17.20;99.90;;;;;;4989799;28;20734;-77
2021/10/24 12:03:05;;;;;;;4.65;3.67;;;;;;;;;;4989024;28;20312;-76
2021/10/24 12:05:34;;;;;;;4.30;3.53;;;;;;;;;;4989400;28;20302;-77
2021/10/24 12:08:03;;;;;;;5.22;3.97;;;;;;;;;;4988860;28;20288;-78
2021/10/24 12:10:37;;;;;;;5.18;3.45;;;;;;;;;;4971962;28;20287;-77
2021/10/24 12:13:05;;;;;;;3.35;2.90;;;18.90;99.90;;;;;;4970475;28;20209;-77
2021/10/24 12:15:41;;;;;;;3.00;2.70;;;;;;;;;;4977434;28;20226;-77
2021/10/24 12:18:13;;;;;;;4.82;2.80;;;17.60;99.90;;;;;;4989426;28;20261;-77
2021/10/24 12:20:42;;;;;;;4.50;2.63;;;;;;;;;;4989474;28;20240;-77
2021/10/24 12:23:17;;;;;;;5.18;2.88;;;18.40;99.90;;;;;;4989472;28;20729;-78
2021/10/24 12:25:46;;;;;;;6.80;2.70;;;;;;;;;;4989159;28;20296;-78
2021/10/24 12:28:16;;;;;;;5.65;2.50;;;;;;;;;;4990864;28;20197;-78
2021/10/24 12:30:49;;;;;;;5.80;2.17;;;20.20;99.90;;;;;;4992979;28;20202;-77
2021/10/24 12:33:25;;;;;;;4.93;2.42;;;;;;;;;;4993293;28;20201;-77
2021/10/24 12:35:54;;;;;;;3.80;2.28;;;18.90;99.90;;;;;;4992879;28;20197;-77
2021/10/24 12:38:23;;;;;;;4.28;2.72;;;;;;;;;;4980643;28;20230;-77
2021/10/24 12:40:54;;;;;;;3.55;2.60;;;19.00;99.90;;;;;;4991601;28;20225;-77
2021/10/24 12:43:22;;;;;;;5.03;2.63;;;18.30;99.90;;;;;;4974868;28;20306;-77
2021/10/24 12:45:53;;;;;;;4.68;2.45;;;18.10;99.90;;;;;;4973118;28;20670;-78
2021/10/24 12:48:22;;;;;;;4.20;2.30;;;18.70;99.90;;;;;;4956271;28;20230;-78
2021/10/24 12:50:50;;;;;;;4.10;2.30;;;18.90;99.90;;;;;;4973219;28;20294;-77
2021/10/24 12:53:19;;;;;;;7.28;2.10;;;19.10;99.90;;;;;;4972970;28;20285;-78
2021/10/24 12:56:03;;;;;;;4.82;2.00;;;18.80;99.90;;;;;;4990198;28;20269;-78
2021/10/24 12:58:30;;;;;;;3.40;1.90;;;17.80;99.90;;;;;;4992721;28;20305;-77
2021/10/24 13:00:57;;;;;;;3.60;2.17;;;18.20;99.90;;;;;;4992481;28;20297;-78
2021/10/24 13:03:24;;;;;;;3.25;2.15;;;18.60;99.90;;;;;;4992663;28;20584;-78
2021/10/24 13:05:51;;;;;;;4.70;2.20;;;18.50;99.90;;;;;;4992285;28;20241;-78
2021/10/24 13:08:18;;;;;;;5.22;2.28;;;17.40;99.90;;;;;;4992439;28;20248;-77
2021/10/24 13:10:45;;;;;;;3.85;2.38;;;17.50;99.90;;;;;;4980884;28;20251;-78
2021/10/24 13:13:14;;;;;;;3.97;2.28;;;17.80;99.90;;;;;;4992164;28;20297;-77
2021/10/24 13:15:44;;;;;;;4.05;2.28;;;17.80;99.90;;;;;;4992490;28;20288;-77
2021/10/24 13:18:13;;;;;;;3.67;2.10;;;17.40;99.90;;;;;;4992190;28;20225;-78
2021/10/24 13:20:45;;;;;;;3.75;2.22;;;;;;;;;;4992065;28;20237;-78
2021/10/24 13:23:12;;;;;;;3.15;2.20;;;;;;;;;;4991783;28;20245;-77
2021/10/24 13:25:39;;;;;;;4.80;2.53;;;17.50;99.90;;;;;;4991889;28;20201;-78
2021/10/24 13:28:06;;;;;;;4.45;2.10;;;;;;;;;;4990821;28;20565;-78
2021/10/24 13:30:36;;;;;;;4.68;2.17;;;;;;;;;;4992101;28;20229;-78
2021/10/24 13:33:03;;;;;;;3.80;2.22;;;;;;;;;;4991946;28;20695;-78
2021/10/24 13:35:31;;;;;;;4.63;2.70;;;;;;;;;;4991800;28;20677;-77
2021/10/24 13:37:58;;;;;;;3.20;2.17;;;;;;;;;;4991418;28;20308;-78
2021/10/24 13:40:26;;;;;;;4.50;2.13;;;;;;;;;;4991376;28;20226;-78
2021/10/24 13:42:54;;;;;;;4.33;2.20;;;;;;;;;;4977574;28;20237;-78
2021/10/24 13:45:25;;;;;;;4.13;2.40;;;;;;;;;;4972415;28;20290;-78
2021/10/24 13:47:55;;;;;;;5.33;2.97;;;;;;;;;;4972582;28;20295;-78
2021/10/24 13:50:24;;;;;;;5.90;2.60;;;;;;;;;;4972363;28;20213;-78
2021/10/24 13:52:52;;;;;;;3.73;2.37;;;;;;;;;;4972183;28;20233;-78
2021/10/24 13:55:20;;;;;;;5.03;2.40;;;;;;;;;;4972313;28;20311;-78
2021/10/24 13:57:48;;;;;;;4.32;2.53;;;;;;;;;;4974525;28;20241;-77
2021/10/24 14:00:17;;;;;;;4.77;3.20;;;;;;;;;;4991569;28;20294;-78
2021/10/24 14:02:49;;;;;;;3.83;3.00;;;;;;;;;;4989443;28;20229;-77
2021/10/24 14:05:18;;;;;;;4.82;2.85;;;;;;;;;;4986986;28;20593;-77
2021/10/24 14:07:46;;;;;;;6.73;3.40;;;;;;;;;;4989853;28;20229;-78
2021/10/24 14:10:15;;;;;;;7.33;3.40;;;;;;;;;;4991395;28;20726;-77
2021/10/24 14:12:44;;;;;;;5.27;3.67;;;;;;;;;;4991646;28;20213;-78